Time;durP1;ratioP1;P1;durP2;ratioP2;P2;SDS_P1;SDS_P2;PMS_P1;PMS_P2;Temp;Humidity;BMP_temperature;BMP_pressure;BME280_temperature;BME280_humidity;BME280_pressure;Samples;Min_cycle;Max_cycle;Signal;HPM_P1;HPM_P2
2023/03/12 00:01:45;;;;;;;;;;;0.90;99.90;;;;;;4914716;29;1197;-62
2023/03/12 00:04:11;;;;;;;;;;;0.90;99.90;;;;;;4916706;29;1110;-61
2023/03/12 00:06:37;;;;;;;;;;;0.80;99.90;;;;;;4918207;29;913;-61
2023/03/12 00:09:04;;;;;;;;;;;0.80;99.90;;;;;;4919439;29;1036;-62
2023/03/12 00:11:30;;;;;;;;;;;0.80;99.90;;;;;;4905451;29;1911;-62
2023/03/12 00:13:58;;;;;;;;;;;0.80;99.90;;;;;;4901363;29;1000;-60
2023/03/12 00:16:25;;;;;;;;;;;0.80;99.90;;;;;;4900589;29;814;-60
2023/03/12 00:18:52;;;;;;;;;;;0.90;99.90;;;;;;4900087;29;1106;-61
2023/03/12 00:21:20;;;;;;;;;;;0.70;99.90;;;;;;4914007;29;1796;-61
2023/03/12 00:23:47;;;;;;;;;;;0.80;99.90;;;;;;4919535;29;1068;-62
2023/03/12 00:26:14;;;;;;;;;;;0.70;99.90;;;;;;4920031;29;1548;-62
2023/03/12 00:28:40;;;;;;;;;;;0.80;99.90;;;;;;4919336;29;1599;-62
2023/03/12 00:31:14;;;;;;;;;;;0.80;99.90;;;;;;4908462;29;1982;-61
2023/03/12 00:33:40;;;;;;;;;;;0.80;99.90;;;;;;4900056;29;1297;-62
2023/03/12 00:36:06;;;;;;;;;;;0.80;99.90;;;;;;4899959;29;1121;-62
2023/03/12 00:38:33;;;;;;;;;;;0.70;99.90;;;;;;4899895;29;925;-62
2023/03/12 00:40:59;;;;;;;;;;;0.80;99.90;;;;;;4911310;29;1201;-62
2023/03/12 00:43:26;;;;;;;;;;;0.80;99.90;;;;;;4920312;29;885;-62
2023/03/12 00:45:52;;;;;;;;;;;0.80;99.90;;;;;;4920250;29;944;-61
2023/03/12 00:48:18;;;;;;;;;;;0.80;99.90;;;;;;4920539;29;1016;-62
2023/03/12 00:50:44;;;;;;;;;;;0.90;99.90;;;;;;4910240;29;1985;-62
2023/03/12 00:53:11;;;;;;;;;;;0.80;99.90;;;;;;4900483;29;1076;-62
2023/03/12 00:55:37;;;;;;;;;;;0.90;99.90;;;;;;4900683;29;1301;-62
2023/03/12 00:58:03;;;;;;;;;;;0.80;99.90;;;;;;4899501;29;1028;-62
2023/03/12 01:00:30;;;;;;;;;;;0.90;99.90;;;;;;4906436;29;1212;-62
2023/03/12 01:02:56;;;;;;;;;;;0.90;99.90;;;;;;4919144;29;1008;-62
2023/03/12 01:05:22;;;;;;;;;;;0.90;99.90;;;;;;4919346;29;703;-62
2023/03/12 01:07:49;;;;;;;;;;;1.00;99.90;;;;;;4918435;29;1230;-62
2023/03/12 01:10:16;;;;;;;;;;;1.00;99.90;;;;;;4914614;29;1978;-62
2023/03/12 01:12:43;;;;;;;;;;;1.00;99.90;;;;;;4898729;29;1028;-60
2023/03/12 01:15:11;;;;;;;;;;;1.00;99.90;;;;;;4899781;29;1242;-60
2023/03/12 01:17:37;;;;;;;;;;;1.00;99.90;;;;;;4899960;29;1058;-59
2023/03/12 01:20:04;;;;;;;;;;;1.00;99.90;;;;;;4902792;29;1192;-62
2023/03/12 01:22:30;;;;;;;;;;;1.00;99.90;;;;;;4918602;29;968;-62
2023/03/12 01:24:56;;;;;;;;;;;1.00;99.90;;;;;;4919254;29;777;-59
2023/03/12 01:27:23;;;;;;;;;;;1.00;99.90;;;;;;4917743;29;1242;-60
2023/03/12 01:29:49;;;;;;;;;;;1.00;99.90;;;;;;4917865;29;1176;-61
2023/03/12 01:32:15;;;;;;;;;;;0.90;99.90;;;;;;4899670;29;1968;-61
2023/03/12 01:34:42;;;;;;;;;;;1.00;99.90;;;;;;4899178;29;1111;-61
2023/03/12 01:37:08;;;;;;;;;;;1.00;99.90;;;;;;4900243;29;937;-60
2023/03/12 01:39:34;;;;;;;;;;;1.00;99.90;;;;;;4898904;29;825;-63
2023/03/12 01:42:01;;;;;;;;;;;1.00;99.90;;;;;;4917765;29;1134;-62
2023/03/12 01:44:27;;;;;;;;;;;1.00;99.90;;;;;;4918316;29;1004;-62
2023/03/12 01:46:53;;;;;;;;;;;1.00;99.90;;;;;;4918513;29;1083;-62
2023/03/12 01:49:24;;;;;;;;;;;1.00;99.90;;;;;;4918795;29;1067;-60
2023/03/12 01:51:50;;;;;;;;;;;1.00;99.90;;;;;;4900454;29;1907;-62
2023/03/12 01:54:20;;;;;;;;;;;1.00;99.90;;;;;;4899102;29;1084;-62
2023/03/12 01:56:46;;;;;;;;;;;1.10;99.90;;;;;;4899312;29;1182;-60
2023/03/12 01:59:14;;;;;;;;;;;1.00;99.90;;;;;;4899688;29;829;-62
2023/03/12 02:01:41;;;;;;;;;;;1.10;99.90;;;;;;4914677;29;1145;-62
2023/03/12 02:04:07;;;;;;;;;;;1.10;99.90;;;;;;4916781;29;1104;-60
2023/03/12 02:06:37;;;;;;;;;;;1.10;99.90;;;;;;4918404;29;873;-60
2023/03/12 02:09:04;;;;;;;;;;;1.10;99.90;;;;;;4918083;29;1251;-61
2023/03/12 02:11:30;;;;;;;;;;;1.20;99.90;;;;;;4903025;29;1943;-62
2023/03/12 02:13:57;;;;;;;;;;;1.20;99.90;;;;;;4898709;29;1033;-61
2023/03/12 02:16:23;;;;;;;;;;;1.20;99.90;;;;;;4899032;29;808;-61
2023/03/12 02:18:51;;;;;;;;;;;1.20;99.90;;;;;;4897860;29;1292;-61
2023/03/12 02:21:22;;;;;;;;;;;1.20;99.90;;;;;;4911010;29;1166;-61
2023/03/12 02:23:51;;;;;;;;;;;1.20;99.90;;;;;;4916224;29;1020;-61
2023/03/12 02:26:18;;;;;;;;;;;1.20;99.90;;;;;;4916804;29;1032;-60
2023/03/12 02:28:45;;;;;;;;;;;1.30;99.90;;;;;;4916613;29;1220;-62
2023/03/12 02:31:13;;;;;;;;;;;1.30;99.90;;;;;;4906158;29;1903;-62
2023/03/12 02:33:39;;;;;;;;;;;1.30;99.90;;;;;;4897802;29;1330;-62
2023/03/12 02:36:05;;;;;;;;;;;1.30;99.90;;;;;;4899382;29;1071;-61
2023/03/12 02:38:32;;;;;;;;;;;1.30;99.90;;;;;;4898834;29;1127;-61
2023/03/12 02:41:00;;;;;;;;;;;1.30;99.90;;;;;;4907308;29;1228;-60
2023/03/12 02:43:26;;;;;;;;;;;1.30;99.90;;;;;;4917444;29;1019;-60
2023/03/12 02:45:53;;;;;;;;;;;1.30;99.90;;;;;;4924370;29;1327;-61
2023/03/12 02:48:19;;;;;;;;;;;1.30;99.90;;;;;;4917886;29;1060;-59
2023/03/12 02:50:45;;;;;;;;;;;1.30;99.90;;;;;;4908752;29;1992;-62
2023/03/12 02:53:11;;;;;;;;;;;1.30;99.90;;;;;;4898552;29;873;-62
2023/03/12 02:55:37;;;;;;;;;;;1.30;99.90;;;;;;4897517;29;1165;-60
2023/03/12 02:58:03;;;;;;;;;;;1.30;99.90;;;;;;4898761;29;774;-61
2023/03/12 03:00:31;;;;;;;;;;;1.30;99.90;;;;;;4903810;29;1169;-61
2023/03/12 03:02:57;;;;;;;;;;;1.30;99.90;;;;;;4917367;29;912;-62
2023/03/12 03:05:24;;;;;;;;;;;1.30;99.90;;;;;;4918071;29;1007;-62
2023/03/12 03:07:50;;;;;;;;;;;1.20;99.90;;;;;;4917572;29;992;-61
2023/03/12 03:10:16;;;;;;;;;;;1.30;99.90;;;;;;4913294;29;1432;-60
2023/03/12 03:12:43;;;;;;;;;;;1.30;99.90;;;;;;4898310;29;1970;-61
2023/03/12 03:15:10;;;;;;;;;;;1.20;99.90;;;;;;4897578;29;1259;-60
2023/03/12 03:17:36;;;;;;;;;;;1.20;99.90;;;;;;4898680;29;980;-62
2023/03/12 03:20:07;;;;;;;;;;;1.20;99.90;;;;;;4900249;29;1161;-60
2023/03/12 03:22:33;;;;;;;;;;;1.20;99.90;;;;;;4917186;29;1036;-61
2023/03/12 03:24:59;;;;;;;;;;;1.20;99.90;;;;;;4917284;29;770;-63
2023/03/12 03:27:25;;;;;;;;;;;1.20;99.90;;;;;;4917462;29;988;-62
2023/03/12 03:29:51;;;;;;;;;;;1.20;99.90;;;;;;4916349;29;1157;-60
2023/03/12 03:32:17;;;;;;;;;;;1.20;99.90;;;;;;4897999;29;1907;-61
2023/03/12 03:34:44;;;;;;;;;;;1.20;99.90;;;;;;4898413;29;1031;-62
2023/03/12 03:37:10;;;;;;;;;;;1.20;99.90;;;;;;4898620;29;1031;-61
2023/03/12 03:39:36;;;;;;;;;;;1.20;99.90;;;;;;4897243;29;814;-61
2023/03/12 03:42:02;;;;;;;;;;;1.20;99.90;;;;;;4917078;29;1169;-63
2023/03/12 03:44:29;;;;;;;;;;;1.20;99.90;;;;;;4920604;29;992;-62
2023/03/12 03:46:55;;;;;;;;;;;1.10;99.90;;;;;;4920715;29;1035;-62
2023/03/12 03:49:22;;;;;;;;;;;1.20;99.90;;;;;;4920962;29;1004;-62
2023/03/12 03:51:48;;;;;;;;;;;1.20;99.90;;;;;;4905230;29;1906;-61
2023/03/12 03:54:15;;;;;;;;;;;1.20;99.90;;;;;;4901311;29;984;-62
2023/03/12 03:56:41;;;;;;;;;;;1.20;99.90;;;;;;4899963;29;1332;-61
2023/03/12 03:59:07;;;;;;;;;;;1.20;99.90;;;;;;4901927;29;984;-62
2023/03/12 04:01:33;;;;;;;;;;;1.20;99.90;;;;;;4914793;29;1122;-62
2023/03/12 04:03:59;;;;;;;;;;;1.20;99.90;;;;;;4920162;29;1040;-62
2023/03/12 04:06:25;;;;;;;;;;;1.20;99.90;;;;;;4920901;29;1024;-61
2023/03/12 04:08:52;;;;;;;;;;;1.30;99.90;;;;;;4919742;29;1058;-60
2023/03/12 04:11:19;;;;;;;;;;;1.30;99.90;;;;;;4909102;29;1907;-59
2023/03/12 04:13:45;;;;;;;;;;;1.30;99.90;;;;;;4901299;29;948;-62
2023/03/12 04:16:12;;;;;;;;;;;1.30;99.90;;;;;;4901055;29;1823;-62
2023/03/12 04:18:39;;;;;;;;;;;1.30;99.90;;;;;;4901574;29;1020;-60
2023/03/12 04:21:06;;;;;;;;;;;1.30;99.90;;;;;;4911034;29;1169;-62
2023/03/12 04:23:32;;;;;;;;;;;1.40;99.90;;;;;;4920075;29;933;-62
2023/03/12 04:25:59;;;;;;;;;;;1.40;99.90;;;;;;4920484;29;814;-62
2023/03/12 04:28:25;;;;;;;;;;;1.40;99.90;;;;;;4920493;29;972;-61
2023/03/12 04:31:00;;;;;;;;;;;1.40;99.90;;;;;;4912103;29;1970;-60
2023/03/12 04:33:31;;;;;;;;;;;1.50;99.90;;;;;;4900831;29;1043;-61
2023/03/12 04:35:58;;;;;;;;;;;1.50;99.90;;;;;;4900868;29;1056;-61
2023/03/12 04:38:24;;;;;;;;;;;1.60;99.90;;;;;;4901172;29;748;-61
2023/03/12 04:40:58;;;;;;;;;;;1.40;99.90;;;;;;4907296;29;1205;-61
2023/03/12 04:43:25;;;;;;;;;;;1.50;99.90;;;;;;4919551;29;1015;-61
2023/03/12 04:45:51;;;;;;;;;;;1.60;99.90;;;;;;4919412;29;1154;-61
2023/03/12 04:48:17;;;;;;;;;;;1.60;99.90;;;;;;4919898;29;987;-62
2023/03/12 04:50:43;;;;;;;;;;;1.60;99.90;;;;;;4912985;29;1255;-62
2023/03/12 04:53:09;;;;;;;;;;;1.60;99.90;;;;;;4899128;29;2009;-62
2023/03/12 04:55:36;;;;;;;;;;;1.70;99.90;;;;;;4900546;29;1189;-62
2023/03/12 04:58:02;;;;;;;;;;;1.70;99.90;;;;;;4900791;29;1063;-60
2023/03/12 05:00:28;;;;;;;;;;;1.70;99.90;;;;;;4904852;29;1208;-59
2023/03/12 05:02:54;;;;;;;;;;;1.70;99.90;;;;;;4919300;29;860;-61
2023/03/12 05:05:20;;;;;;;;;;;1.70;99.90;;;;;;4919724;29;1185;-62
2023/03/12 05:07:47;;;;;;;;;;;1.70;99.90;;;;;;4919121;29;1107;-62
2023/03/12 05:10:13;;;;;;;;;;;1.70;99.90;;;;;;4916652;29;1212;-60
2023/03/12 05:12:39;;;;;;;;;;;1.70;99.90;;;;;;4900040;29;1907;-60
2023/03/12 05:15:05;;;;;;;;;;;1.70;99.90;;;;;;4900316;29;976;-62
2023/03/12 05:17:32;;;;;;;;;;;1.70;99.90;;;;;;4900294;29;905;-63
2023/03/12 05:19:58;;;;;;;;;;;1.70;99.90;;;;;;4900670;29;1232;-62
2023/03/12 05:22:24;;;;;;;;;;;1.70;99.90;;;;;;4918879;29;953;-62
2023/03/12 05:24:50;;;;;;;;;;;1.70;99.90;;;;;;4919114;29;893;-60
2023/03/12 05:27:16;;;;;;;;;;;1.70;99.90;;;;;;4918931;29;892;-60
2023/03/12 05:29:42;;;;;;;;;;;1.70;99.90;;;;;;4902041;29;1052;-61
2023/03/12 05:32:09;;;;;;;;;;;1.70;99.90;;;;;;4916575;29;1972;-62
2023/03/12 05:34:35;;;;;;;;;;;1.70;99.90;;;;;;4918675;29;789;-62
2023/03/12 05:37:01;;;;;;;;;;;1.70;99.90;;;;;;4918909;29;1063;-61
2023/03/12 05:39:27;;;;;;;;;;;1.70;99.90;;;;;;4918896;29;833;-60
2023/03/12 05:41:56;;;;;;;;;;;1.70;99.90;;;;;;4903423;29;1188;-61
2023/03/12 05:44:22;;;;;;;;;;;1.80;99.90;;;;;;4899734;29;1005;-60
2023/03/12 05:46:49;;;;;;;;;;;1.70;99.90;;;;;;4899625;29;977;-61
2023/03/12 05:49:15;;;;;;;;;;;1.70;99.90;;;;;;4899969;29;1028;-62
2023/03/12 05:51:42;;;;;;;;;;;1.80;99.90;;;;;;4913036;29;1907;-62
2023/03/12 05:54:08;;;;;;;;;;;1.80;99.90;;;;;;4918207;29;730;-62
2023/03/12 05:56:35;;;;;;;;;;;1.80;99.90;;;;;;4918095;29;1677;-60
2023/03/12 05:59:01;;;;;;;;;;;1.80;99.90;;;;;;4918465;29;956;-60
2023/03/12 06:01:29;;;;;;;;;;;1.80;99.90;;;;;;4911307;29;1564;-61
2023/03/12 06:03:55;;;;;;;;;;;1.80;99.90;;;;;;4908487;29;1223;-60
2023/03/12 06:06:22;;;;;;;;;;;1.80;99.90;;;;;;4907543;29;1305;-60
2023/03/12 06:08:49;;;;;;;;;;;1.80;99.90;;;;;;4908975;29;1222;-60
2023/03/12 06:11:15;;;;;;;;;;;1.90;99.90;;;;;;4909482;29;1962;-60
2023/03/12 06:13:41;;;;;;;;;;;1.90;99.90;;;;;;4917335;29;1306;-62
2023/03/12 06:16:09;;;;;;;;;;;1.80;99.90;;;;;;4917546;29;1370;-62
2023/03/12 06:18:36;;;;;;;;;;;1.90;99.90;;;;;;4917582;29;1398;-61
2023/03/12 06:21:13;;;;;;;;;;;1.90;99.90;;;;;;4916953;29;1402;-61
2023/03/12 06:23:39;;;;;;;;;;;1.90;99.90;;;;;;4907489;29;1382;-60
2023/03/12 06:26:06;;;;;;;;;;;1.90;99.90;;;;;;4909231;29;1337;-61
2023/03/12 06:28:33;;;;;;;;;;;2.00;99.90;;;;;;4907652;29;1349;-62
2023/03/12 06:30:59;;;;;;;;;;;2.00;99.90;;;;;;4911274;29;1234;-62
2023/03/12 06:33:25;;;;;;;;;;;2.00;99.90;;;;;;4917321;29;1910;-62
2023/03/12 06:35:58;;;;;;;;;;;2.10;99.90;;;;;;4918115;29;1254;-60
2023/03/12 06:38:25;;;;;;;;;;;2.10;99.90;;;;;;4918173;29;892;-60
2023/03/12 06:40:58;;;;;;;;;;;2.10;99.90;;;;;;4911272;29;1208;-61
2023/03/12 06:43:26;;;;;;;;;;;2.10;99.90;;;;;;4897538;29;1308;-63
2023/03/12 06:45:56;;;;;;;;;;;2.10;99.90;;;;;;4898839;29;923;-62
2023/03/12 06:48:23;;;;;;;;;;;2.10;99.90;;;;;;4882189;29;2070;-62
2023/03/12 06:50:49;;;;;;;;;;;2.10;99.90;;;;;;4904849;29;1177;-61
2023/03/12 06:53:16;;;;;;;;;;;2.00;99.90;;;;;;4931757;29;1948;-62
2023/03/12 06:55:42;;;;;;;;;;;2.00;99.90;;;;;;4917631;29;1220;-62
2023/03/12 06:58:09;;;;;;;;;;;2.10;99.90;;;;;;4916526;29;1020;-60
2023/03/12 07:00:35;;;;;;;;;;;2.10;99.90;;;;;;4912343;29;1209;-63
2023/03/12 07:03:02;;;;;;;;;;;2.00;99.90;;;;;;4904623;29;1178;-61
2023/03/12 07:05:28;;;;;;;;;;;2.00;99.90;;;;;;4917554;29;996;-61
2023/03/12 07:07:54;;;;;;;;;;;2.00;99.90;;;;;;4916443;29;1112;-63
2023/03/12 07:10:21;;;;;;;;;;;2.00;99.90;;;;;;4914560;29;1153;-62
2023/03/12 07:12:47;;;;;;;;;;;1.90;99.90;;;;;;4896812;29;1911;-61
2023/03/12 07:15:13;;;;;;;;;;;1.90;99.90;;;;;;4897701;29;1004;-62
2023/03/12 07:17:40;;;;;;;;;;;1.90;99.90;;;;;;4900793;29;1338;-62
2023/03/12 07:20:06;;;;;;;;;;;1.90;99.90;;;;;;4920060;29;1224;-63
2023/03/12 07:22:32;;;;;;;;;;;1.90;99.90;;;;;;4900921;29;1102;-63
2023/03/12 07:24:59;;;;;;;;;;;1.90;99.90;;;;;;4901549;29;1105;-64
2023/03/12 07:27:25;;;;;;;;;;;1.90;99.90;;;;;;4901474;29;1390;-63
2023/03/12 07:29:51;;;;;;;;;;;1.90;99.90;;;;;;4900963;29;933;-60
2023/03/12 07:32:17;;;;;;;;;;;1.90;99.90;;;;;;4885544;29;1972;-63
2023/03/12 07:34:44;;;;;;;;;;;1.90;99.90;;;;;;4901329;29;1094;-62
2023/03/12 07:37:10;;;;;;;;;;;1.80;99.90;;;;;;4901186;29;1029;-63
2023/03/12 07:39:36;;;;;;;;;;;1.70;99.90;;;;;;4885897;29;1245;-61
2023/03/12 07:42:02;;;;;;;;;;;1.90;99.90;;;;;;4899995;29;1253;-61
2023/03/12 07:44:29;;;;;;;;;;;1.90;99.90;;;;;;4909025;29;1309;-60
2023/03/12 07:46:55;;;;;;;;;;;1.90;99.90;;;;;;4910818;29;1606;-61
2023/03/12 07:49:21;;;;;;;;;;;1.90;99.90;;;;;;4911187;29;1315;-62
2023/03/12 07:51:47;;;;;;;;;;;1.90;99.90;;;;;;4913472;29;1974;-60
2023/03/12 07:54:13;;;;;;;;;;;1.90;99.90;;;;;;4919261;29;1368;-61
2023/03/12 07:56:39;;;;;;;;;;;1.90;99.90;;;;;;4918888;29;1298;-61
2023/03/12 07:59:09;;;;;;;;;;;2.00;99.90;;;;;;4919681;29;1115;-61
2023/03/12 08:01:36;;;;;;;;;;;2.00;99.90;;;;;;4918121;29;1189;-61
2023/03/12 08:04:02;;;;;;;;;;;2.10;99.90;;;;;;4919496;29;1277;-59
2023/03/12 08:06:28;;;;;;;;;;;2.00;99.90;;;;;;4920737;29;924;-61
2023/03/12 08:08:54;;;;;;;;;;;2.10;99.90;;;;;;4920661;29;801;-61
2023/03/12 08:11:21;;;;;;;;;;;2.10;99.90;;;;;;4913488;29;1253;-60
2023/03/12 08:13:47;;;;;;;;;;;2.10;99.90;;;;;;4913662;29;1902;-59
2023/03/12 08:16:13;;;;;;;;;;;2.10;99.90;;;;;;4919284;29;1362;-61
2023/03/12 08:18:41;;;;;;;;;;;2.20;99.90;;;;;;4917708;29;1366;-59
2023/03/12 08:21:08;;;;;;;;;;;2.20;99.90;;;;;;4918833;29;1398;-61
2023/03/12 08:23:34;;;;;;;;;;;2.20;99.90;;;;;;4919466;29;1315;-61
2023/03/12 08:26:00;;;;;;;;;;;2.20;99.90;;;;;;4917549;29;1206;-60
2023/03/12 08:28:27;;;;;;;;;;;2.20;99.90;;;;;;4908905;29;1289;-62
2023/03/12 08:30:54;;;;;;;;;;;2.30;99.90;;;;;;4912540;29;1250;-61
2023/03/12 08:33:20;;;;;;;;;;;2.20;99.90;;;;;;4913446;29;1903;-62
2023/03/12 08:35:48;;;;;;;;;;;2.30;99.90;;;;;;4919561;29;1829;-61
2023/03/12 08:38:14;;;;;;;;;;;2.40;99.90;;;;;;4919706;29;1431;-61
2023/03/12 08:40:40;;;;;;;;;;;2.40;99.90;;;;;;4912914;29;1290;-62
2023/03/12 08:43:06;;;;;;;;;;;2.30;99.90;;;;;;4906212;29;1270;-60
2023/03/12 08:45:35;;;;;;;;;;;2.50;99.90;;;;;;4892812;29;1263;-61
2023/03/12 08:48:05;;;;;;;;;;;2.40;99.90;;;;;;4910886;29;1247;-61
2023/03/12 08:50:32;;;;;;;;;;;2.50;99.90;;;;;;4909542;29;1322;-62
2023/03/12 08:52:58;;;;;;;;;;;2.40;99.90;;;;;;4917944;29;1919;-60
2023/03/12 08:55:26;;;;;;;;;;;2.50;99.90;;;;;;4915068;29;1276;-63
2023/03/12 08:57:54;;;;;;;;;;;2.50;99.90;;;;;;4919076;29;1261;-60
2023/03/12 09:00:20;;;;;;;;;;;2.60;99.90;;;;;;4917549;29;1320;-62
2023/03/12 09:02:46;;;;;;;;;;;2.50;99.90;;;;;;4910549;29;1349;-62
2023/03/12 09:05:13;;;;;;;;;;;2.50;99.90;;;;;;4899828;29;1468;-61
2023/03/12 09:07:39;;;;;;;;;;;2.60;99.90;;;;;;4900868;29;885;-61
2023/03/12 09:10:06;;;;;;;;;;;2.70;99.90;;;;;;4900421;29;1122;-62
2023/03/12 09:12:32;;;;;;;;;;;2.80;99.90;;;;;;4917435;29;1907;-60
2023/03/12 09:14:58;;;;;;;;;;;2.80;99.90;;;;;;4919571;29;989;-61
2023/03/12 09:17:24;;;;;;;;;;;2.70;99.90;;;;;;4919101;29;1454;-63
2023/03/12 09:19:50;;;;;;;;;;;2.80;99.90;;;;;;4919463;29;1000;-62
2023/03/12 09:22:17;;;;;;;;;;;2.80;99.90;;;;;;4902020;29;1156;-60
2023/03/12 09:24:43;;;;;;;;;;;2.90;99.90;;;;;;4900311;29;1665;-61
2023/03/12 09:27:09;;;;;;;;;;;2.90;99.90;;;;;;4900815;29;1008;-59
2023/03/12 09:29:35;;;;;;;;;;;2.80;99.90;;;;;;4899505;29;1297;-62
2023/03/12 09:32:01;;;;;;;;;;;2.90;99.90;;;;;;4913952;29;1968;-60
2023/03/12 09:34:27;;;;;;;;;;;2.90;99.90;;;;;;4919017;29;905;-61
2023/03/12 09:36:54;;;;;;;;;;;2.80;99.90;;;;;;4919162;29;885;-60
2023/03/12 09:39:21;;;;;;;;;;;2.80;99.90;;;;;;4918219;29;1028;-61
2023/03/12 09:41:48;;;;;;;;;;;2.90;99.90;;;;;;4906722;29;1228;-61
2023/03/12 09:44:23;;;;;;;;;;;3.00;99.90;;;;;;4918775;29;1103;-63
2023/03/12 09:46:54;;;;;;;;;;;2.90;99.90;;;;;;4918542;29;809;-64
2023/03/12 09:49:33;;;;;;;;;;;3.10;99.90;;;;;;4917783;29;1000;-61
2023/03/12 09:52:01;;;;;;;;;;;3.10;99.90;;;;;;4904929;29;1911;-61
2023/03/12 09:54:35;;;;;;;;;;;3.00;99.90;;;;;;4899893;29;904;-62
2023/03/12 09:57:08;;;;;;;;;;;3.20;99.90;;;;;;4899301;29;1166;-62
2023/03/12 09:59:35;;;;;;;;;;;3.10;99.90;;;;;;4905673;29;1149;-62
2023/03/12 10:02:05;;;;;;;;;;;3.20;99.90;;;;;;4915209;29;1176;-62
2023/03/12 10:04:31;;;;;;;;;;;3.30;99.90;;;;;;4918599;29;1024;-62
2023/03/12 10:07:00;;;;;;;;;;;3.40;99.90;;;;;;4918533;29;1000;-61
2023/03/12 10:09:40;;;;;;;;;;;3.30;99.90;;;;;;4918558;29;999;-64
2023/03/12 10:12:06;;;;;;;;;;;3.50;99.90;;;;;;4902915;29;1903;-63
2023/03/12 10:14:51;;;;;;;;;;;3.60;99.90;;;;;;4899593;29;945;-64
2023/03/12 10:17:26;;;;;;;;;;;3.60;99.90;;;;;;4899491;29;988;-63
2023/03/12 10:20:11;;;;;;;;;;;3.50;99.90;;;;;;4899484;29;1004;-60
2023/03/12 10:22:56;;;;;;;;;;;3.70;99.90;;;;;;4899078;29;1157;-60
2023/03/12 10:25:28;;;;;;;;;;;3.60;99.90;;;;;;4899422;29;1059;-62
2023/03/12 10:27:59;;;;;;;;;;;3.80;99.90;;;;;;4899217;29;1011;-62
2023/03/12 10:30:27;;;;;;;;;;;3.90;99.90;;;;;;4908435;29;1179;-60
2023/03/12 10:32:59;;;;;;;;;;;3.80;99.90;;;;;;4898803;29;1900;-60
2023/03/12 10:35:29;;;;;;;;;;;3.80;99.90;;;;;;4899037;29;991;-59
2023/03/12 10:37:59;;;;;;;;;;;4.00;99.90;;;;;;4898990;29;772;-61
2023/03/12 10:40:27;;;;;;;;;;;4.10;99.90;;;;;;4900485;29;1288;-61
2023/03/12 10:42:53;;;;;;;;;;;4.10;99.90;;;;;;4917342;29;1012;-62
2023/03/12 10:45:19;;;;;;;;;;;4.20;99.90;;;;;;4917662;29;1062;-62
2023/03/12 10:47:49;;;;;;;;;;;4.20;99.90;;;;;;4917837;29;1020;-61
2023/03/12 10:50:18;;;;;;;;;;;4.10;99.90;;;;;;4916934;29;1152;-62
2023/03/12 10:52:45;;;;;;;;;;;4.30;99.90;;;;;;4898440;29;1899;-61
2023/03/12 10:55:19;;;;;;;;;;;4.40;99.90;;;;;;4898011;29;1207;-61
2023/03/12 10:57:46;;;;;;;;;;;4.40;99.90;;;;;;4898774;29;1060;-60
2023/03/12 11:00:18;;;;;;;;;;;4.30;99.90;;;;;;4898765;29;1168;-62
2023/03/12 11:02:45;;;;;;;;;;;4.30;99.90;;;;;;4917454;29;1068;-61
2023/03/12 11:05:38;;;;;;;;;;;4.40;99.90;;;;;;4917505;29;986;-61
2023/03/12 11:08:17;;;;;;;;;;;4.50;99.90;;;;;;4914487;29;1030;-61
2023/03/12 11:10:45;;;;;;;;;;;4.70;99.90;;;;;;4909853;29;1369;-61
2023/03/12 11:13:28;;;;;;;;;;;4.80;99.90;;;;;;4916638;29;1907;-61
2023/03/12 11:15:55;;;;;;;;;;;4.80;99.90;;;;;;4917329;29;1027;-61
2023/03/12 11:18:22;;;;;;;;;;;4.90;99.90;;;;;;4917422;29;789;-60
2023/03/12 11:20:51;;;;;;;;;;;5.10;99.90;;;;;;4912408;29;1181;-60
2023/03/12 11:23:37;;;;;;;;;;;5.30;99.90;;;;;;4905287;29;1302;-60
2023/03/12 11:26:08;;;;;;;;;;;5.50;99.90;;;;;;4898521;29;1029;-59
2023/03/12 11:29:10;;;;;;;;;;;5.50;99.90;;;;;;4912433;29;1224;-61
2023/03/12 11:31:40;;;;;;;;;;;5.50;99.90;;;;;;4815041;29;1273;-61
2023/03/12 11:34:09;;;;;;;;;;;5.60;99.90;;;;;;4894473;29;1903;-60
2023/03/12 11:36:59;;;;;;;;;;;6.00;99.90;;;;;;4903989;29;1242;-61
2023/03/12 11:39:44;;;;;;;;;;;5.80;99.90;;;;;;4901749;29;1182;-61
2023/03/12 11:42:31;;;;;;;;;;;6.10;99.90;;;;;;4907495;29;1270;-61
2023/03/12 11:45:16;;;;;;;;;;;6.00;99.90;;;;;;4914639;29;1224;-61
2023/03/12 11:47:42;;;;;;;;;;;6.10;99.90;;;;;;4915343;29;1299;-62
2023/03/12 11:50:27;;;;;;;;;;;6.10;99.90;;;;;;4917426;29;981;-60
2023/03/12 11:53:01;;;;;;;;;;;6.20;99.90;;;;;;4905717;29;1903;-61
2023/03/12 11:55:40;;;;;;;;;;;6.20;99.90;;;;;;4916465;29;1296;-60
2023/03/12 11:58:09;;;;;;;;;;;6.40;99.90;;;;;;4898252;29;1290;-62
2023/03/12 12:00:39;;;;;;;;;;;6.40;99.90;;;;;;4898398;29;1285;-59
2023/03/12 12:03:23;;;;;;;;;;;6.60;99.90;;;;;;4904167;29;1219;-60
2023/03/12 12:05:52;;;;;;;;;;;6.60;99.90;;;;;;4885002;29;1231;-60
2023/03/12 12:08:41;;;;;;;;;;;6.60;99.90;;;;;;4884988;29;1115;-61
2023/03/12 12:11:20;;;;;;;;;;;6.50;99.90;;;;;;4891459;29;1221;-62
2023/03/12 12:13:46;;;;;;;;;;;6.60;99.90;;;;;;4903406;29;1982;-62
2023/03/12 12:16:15;;;;;;;;;;;6.80;99.90;;;;;;4919373;29;1099;-61
2023/03/12 12:18:51;;;;;;;;;;;6.70;99.90;;;;;;4903886;29;833;-61
2023/03/12 12:21:29;;;;;;;;;;;6.70;99.90;;;;;;4895832;29;1635;-62
2023/03/12 12:23:56;;;;;;;;;;;7.00;99.90;;;;;;4885143;29;1148;-61
2023/03/12 12:26:35;;;;;;;;;;;6.80;99.90;;;;;;4902438;29;1059;-61
2023/03/12 12:29:21;;;;;;;;;;;7.10;99.90;;;;;;4885330;29;1123;-62
2023/03/12 12:31:50;;;;;;;;;;;7.00;99.90;;;;;;4895393;29;1730;-59
2023/03/12 12:34:23;;;;;;;;;;;7.00;99.90;;;;;;4903076;29;1982;-63
2023/03/12 12:36:55;;;;;;;;;;;7.20;99.90;;;;;;4919134;29;1028;-60
2023/03/12 12:39:28;;;;;;;;;;;7.30;99.90;;;;;;4903096;29;1064;-60
2023/03/12 12:41:57;;;;;;;;;;;7.20;99.90;;;;;;4875281;29;1755;-62
2023/03/12 12:44:25;;;;;;;;;;;7.20;99.90;;;;;;4884405;29;1029;-60
2023/03/12 12:47:00;;;;;;;;;;;7.20;99.90;;;;;;4891377;29;1338;-60
2023/03/12 12:49:29;;;;;;;;;;;7.40;99.90;;;;;;4919939;29;1185;-60
2023/03/12 12:51:58;;;;;;;;;;;7.30;99.90;;;;;;4890422;29;1529;-61
2023/03/12 12:54:29;;;;;;;;;;;7.30;99.90;;;;;;4900969;29;1903;-60
2023/03/12 12:56:55;;;;;;;;;;;7.60;99.90;;;;;;4896221;29;1427;-63
2023/03/12 12:59:34;;;;;;;;;;;7.40;99.90;;;;;;4906346;29;1211;-62
2023/03/12 13:02:01;;;;;;;;;;;7.50;99.90;;;;;;4905512;29;1390;-62
2023/03/12 13:04:32;;;;;;;;;;;7.50;99.90;;;;;;4900853;29;1278;-63
2023/03/12 13:07:03;;;;;;;;;;;7.70;99.90;;;;;;4900796;29;1036;-62
2023/03/12 13:09:35;;;;;;;;;;;7.80;99.90;;;;;;4900534;29;892;-62
2023/03/12 13:12:11;;;;;;;;;;;7.70;99.90;;;;;;4912934;29;1192;-63
2023/03/12 13:14:39;;;;;;;;;;;7.90;99.90;;;;;;4918175;29;1930;-62
2023/03/12 13:17:07;;;;;;;;;;;7.80;99.90;;;;;;4918322;29;1131;-60
2023/03/12 13:19:38;;;;;;;;;;;7.90;99.90;;;;;;4918177;29;1114;-63
2023/03/12 13:22:07;;;;;;;;;;;7.90;99.90;;;;;;4904027;29;1192;-61
2023/03/12 13:24:44;;;;;;;;;;;8.20;99.90;;;;;;4900103;29;1108;-62
2023/03/12 13:27:21;;;;;;;;;;;8.10;99.90;;;;;;4900050;29;1123;-63
2023/03/12 13:29:55;;;;;;;;;;;8.30;99.90;;;;;;4900199;29;791;-60
2023/03/12 13:32:33;;;;;;;;;;;8.30;99.90;;;;;;4914770;29;1196;-61
2023/03/12 13:35:06;;;;;;;;;;;8.40;99.90;;;;;;4918717;29;1115;-62
2023/03/12 13:37:50;;;;;;;;;;;8.60;99.90;;;;;;4918089;29;1345;-61
2023/03/12 13:40:29;;;;;;;;;;;8.40;99.90;;;;;;4918740;29;1071;-62
2023/03/12 13:43:17;;;;;;;;;;;8.70;99.90;;;;;;4899785;29;1008;-62
2023/03/12 13:46:00;;;;;;;;;;;8.60;99.90;;;;;;4899146;29;1342;-62
2023/03/12 13:48:26;;;;;;;;;;;8.80;99.90;;;;;;4899698;29;1012;-62
2023/03/12 13:50:57;;;;;;;;;;;8.70;99.90;;;;;;4900205;29;1082;-60
2023/03/12 13:53:30;;;;;;;;;;;8.70;99.90;;;;;;4899245;29;1996;-60
2023/03/12 13:56:04;;;;;;;;;;;8.90;99.90;;;;;;4899676;29;1310;-62
2023/03/12 13:58:30;;;;;;;;;;;8.80;99.90;;;;;;4881839;29;2085;-62
2023/03/12 14:01:02;;;;;;;;;;;8.70;99.90;;;;;;4891862;29;1103;-62
2023/03/12 14:03:50;;;;;;;;;;;9.00;99.90;;;;;;4899094;29;1122;-61
2023/03/12 14:06:18;;;;;;;;;;;8.90;99.90;;;;;;4915137;29;1897;-62
2023/03/12 14:08:44;;;;;;;;;;;8.90;99.90;;;;;;4894717;29;1577;-63
2023/03/12 14:11:21;;;;;;;;;;;9.00;99.90;;;;;;4895996;29;1327;-62
2023/03/12 14:14:06;;;;;;;;;;;9.20;99.90;;;;;;4895691;29;1915;-62
2023/03/12 14:16:48;;;;;;;;;;;9.20;99.90;;;;;;4892854;29;1715;-61
2023/03/12 14:19:25;;;;;;;;;;;9.20;99.90;;;;;;4896112;29;1217;-61
2023/03/12 14:21:52;;;;;;;;;;;9.20;99.90;;;;;;4908338;29;1030;-61
2023/03/12 14:24:21;;;;;;;;;;;9.10;99.90;;;;;;4898845;29;1470;-61
2023/03/12 14:26:47;;;;;;;;;;;9.00;99.90;;;;;;4915250;29;1040;-61
2023/03/12 14:29:24;;;;;;;;;;;9.10;99.90;;;;;;4899053;29;1761;-61
2023/03/12 14:31:51;;;;;;;;;;;9.20;99.90;;;;;;4895084;29;1192;-62
2023/03/12 14:34:19;;;;;;;;;;;9.20;99.90;;;;;;4905377;29;1996;-62
2023/03/12 14:36:45;;;;;;;;;;;9.20;99.90;;;;;;4898687;29;1043;-59
2023/03/12 14:39:19;;;;;;;;;;;9.20;99.90;;;;;;4899066;29;993;-60
2023/03/12 14:41:49;;;;;;;;;;;9.20;99.90;;;;;;4908486;29;1158;-60
2023/03/12 14:44:23;;;;;;;;;;;9.40;99.90;;;;;;4901085;29;1114;-60
2023/03/12 14:46:59;;;;;;;;;;;9.30;99.90;;;;;;4917604;29;987;-62
2023/03/12 14:49:26;;;;;;;;;;;9.40;99.90;;;;;;4888710;29;1656;-60
2023/03/12 14:51:53;;;;;;;;;;;9.40;99.90;;;;;;4907060;29;1586;-61
2023/03/12 14:54:22;;;;;;;;;;;9.50;99.90;;;;;;4909026;29;1899;-62
2023/03/12 14:56:49;;;;;;;;;;;9.60;99.90;;;;;;4916001;29;1510;-60